Time;durP1;ratioP1;P1;durP2;ratioP2;P2;SDS_P1;SDS_P2;PMS_P1;PMS_P2;Temp;Humidity;BMP_temperature;BMP_pressure;BME280_temperature;BME280_humidity;BME280_pressure;Samples;Min_cycle;Max_cycle;Signal;HPM_P1;HPM_P2
2022/04/27 00:02:15;;;;;;;;;;;;;;;;;;5053041;28;20295;-83
2022/04/27 00:04:40;;;;;;;;;;;;;;;;;;5052082;28;19909;-83
2022/04/27 00:07:07;;;;;;;;;;;;;;;;;;5051666;28;19939;-83
2022/04/27 00:09:32;;;;;;;;;;;;;;;;;;5051810;28;19909;-83
2022/04/27 00:12:00;;;;;;;;;;;;;;;;;;5051925;28;19962;-83
2022/04/27 00:14:26;;;;;;;;;;;;;;;;;;5053402;28;19963;-83
2022/04/27 00:16:51;;;;;;;;;;;;;;;;;;5051264;28;19909;-83
2022/04/27 00:19:16;;;;;;;;;;;;;;;;;;5053265;28;19912;-83
2022/04/27 00:21:41;;;;;;;;;;;;;;;;;;5051489;28;19963;-83
2022/04/27 00:24:06;;;;;;;;;;;;;;;;;;5051591;28;19948;-83
2022/04/27 00:26:31;;;;;;;;;;;;;;;;;;5052941;28;20015;-83
2022/04/27 00:28:56;;;;;;;;;;;;;;;;;;5051454;28;19913;-83
2022/04/27 00:31:21;;;;;;;;;;;;;;;;;;5051665;28;19912;-83
2022/04/27 00:33:47;;;;;;;;;;;;;;;;;;5051512;28;19913;-83
2022/04/27 00:36:12;;;;;;;;;;;;;;;;;;5051772;28;19909;-83
2022/04/27 00:38:37;;;;;;;;;;;;;;;;;;5051229;28;19955;-83
2022/04/27 00:41:02;;;;;;;;;;;;;;;;;;5051588;28;20360;-83
2022/04/27 00:43:27;;;;;;;;;;;;;;;;;;5051476;28;20269;-83
2022/04/27 00:45:53;;;;;;;;;;;;;;;;;;5051444;28;19921;-83
2022/04/27 00:48:18;;;;;;;;;;;;;;;;;;5050737;28;19927;-83
2022/04/27 00:50:43;;;;;;;;;;;;;;;;;;5052678;28;19913;-83
2022/04/27 00:53:08;;;;;;;;;;;;;;;;;;5051094;28;19909;-83
2022/04/27 00:55:33;;;;;;;;;;;;;;;;;;5052539;28;19917;-83
2022/04/27 00:57:59;;;;;;;;;;;;;;;;;;5050947;28;20383;-83
2022/04/27 01:00:24;;;;;;;;;;;;;;;;;;5051039;28;19909;-83
2022/04/27 01:02:49;;;;;;;;;;;;;;;;;;5051125;28;19909;-83
2022/04/27 01:05:15;;;;;;;;;;;;;;;;;;5050843;28;19935;-83
2022/04/27 01:07:40;;;;;;;;;;;;;;;;;;5051019;28;19916;-83
2022/04/27 01:10:05;;;;;;;;;;;;;;;;;;5051122;28;20334;-83
2022/04/27 01:12:30;;;;;;;;;;;;;;;;;;5051083;28;20361;-83
2022/04/27 01:14:55;;;;;;;;;;;;;;;;;;5050846;28;19916;-83
2022/04/27 01:17:20;;;;;;;;;;;;;;;;;;5050090;28;19916;-83
2022/04/27 01:19:46;;;;;;;;;;;;;;;;;;5052009;28;20301;-83
2022/04/27 01:22:11;;;;;;;;;;;;;;;;;;5050883;28;20280;-83
2022/04/27 01:24:36;;;;;;;;;;;;;;;;;;5050342;28;19909;-83
2022/04/27 01:27:02;;;;;;;;;;;;;;;;;;5050032;28;19913;-83
2022/04/27 01:29:27;;;;;;;;;;;;;;;;;;5050850;28;19915;-83
2022/04/27 01:31:52;;;;;;;;;;;;;;;;;;5052004;28;20280;-83
2022/04/27 01:34:17;;;;;;;;;;;;;;;;;;5050939;28;19928;-83
2022/04/27 01:36:42;;;;;;;;;;;;;;;;;;5051817;28;20201;-83
2022/04/27 01:39:07;;;;;;;;;;;;;;;;;;5051840;28;20015;-83
2022/04/27 01:41:32;;;;;;;;;;;;;;;;;;5050300;28;20653;-83
2022/04/27 01:43:57;;;;;;;;;;;;;;;;;;5050608;28;19928;-83
2022/04/27 01:46:22;;;;;;;;;;;;;;;;;;5050643;28;19975;-83
2022/04/27 01:48:48;;;;;;;;;;;;;;;;;;5050211;28;19955;-83
2022/04/27 01:51:13;;;;;;;;;;;;;;;;;;5050665;28;19952;-83
2022/04/27 01:56:22;;;;;;;;;;;;;;;;;;5051792;28;19955;-83
2022/04/27 01:58:47;;;;;;;;;;;;;;;;;;5050092;28;19908;-83
2022/04/27 02:01:12;;;;;;;;;;;;;;;;;;5050247;28;20388;-83
2022/04/27 02:03:37;;;;;;;;;;;;;;;;;;5050135;28;20353;-83
2022/04/27 02:06:02;;;;;;;;;;;;;;;;;;5051625;28;20287;-83
2022/04/27 02:08:27;;;;;;;;;;;;;;;;;;5049991;28;19924;-83
2022/04/27 02:10:52;;;;;;;;;;;;;;;;;;5050129;28;19923;-83
2022/04/27 02:13:18;;;;;;;;;;;;;;;;;;5050537;28;19909;-83
2022/04/27 02:15:43;;;;;;;;;;;;;;;;;;5051539;28;19919;-83
2022/04/27 02:18:08;;;;;;;;;;;;;;;;;;5049957;28;19916;-83
2022/04/27 02:20:34;;;;;;;;;;;;;;;;;;5050269;28;20367;-83
2022/04/27 02:22:59;;;;;;;;;;;;;;;;;;5050036;28;19909;-83
2022/04/27 02:25:24;;;;;;;;;;;;;;;;;;5049841;28;19919;-82
2022/04/27 02:27:49;;;;;;;;;;;;;;;;;;5053392;28;19916;-83
2022/04/27 02:30:14;;;;;;;;;;;;;;;;;;5053733;28;19909;-83
2022/04/27 02:32:39;;;;;;;;;;;;;;;;;;5060831;28;19909;-83
2022/04/27 02:35:05;;;;;;;;;;;;;;;;;;5086807;28;19908;-83
2022/04/27 02:37:30;;;;;;;;;;;;;;;;;;5054611;28;19920;-83
2022/04/27 02:39:55;;;;;;;;;;;;;;;;;;5053724;28;20383;-83
2022/04/27 02:42:21;;;;;;;;;;;;;;;;;;5053521;28;19908;-83
2022/04/27 02:44:47;;;;;;;;;;;;;;;;;;5053520;28;19962;-83
2022/04/27 02:47:12;;;;;;;;;;;;;;;;;;5052747;28;19920;-83
2022/04/27 02:52:21;;;;;;;;;;;;;;;;;;5054686;28;19941;-83
2022/04/27 02:54:46;;;;;;;;;;;;;;;;;;5053269;28;19909;-83
2022/04/27 02:57:11;;;;;;;;;;;;;;;;;;5054348;28;19909;-83
2022/04/27 02:59:36;;;;;;;;;;;;;;;;;;5053208;28;20356;-83
2022/04/27 03:02:01;;;;;;;;;;;;;;;;;;5052920;28;20172;-83
2022/04/27 03:04:26;;;;;;;;;;;;;;;;;;5053237;28;19913;-83
2022/04/27 03:06:51;;;;;;;;;;;;;;;;;;5052850;28;20279;-83
2022/04/27 03:09:16;;;;;;;;;;;;;;;;;;5052971;28;19946;-83
2022/04/27 03:11:42;;;;;;;;;;;;;;;;;;5052959;28;20315;-83
2022/04/27 03:14:07;;;;;;;;;;;;;;;;;;5052916;28;19915;-83
2022/04/27 03:16:32;;;;;;;;;;;;;;;;;;5052711;28;19908;-83
2022/04/27 03:18:57;;;;;;;;;;;;;;;;;;5053150;28;19908;-83
2022/04/27 03:21:22;;;;;;;;;;;;;;;;;;5053135;28;20376;-83
2022/04/27 03:23:47;;;;;;;;;;;;;;;;;;5053025;28;19916;-83
2022/04/27 03:26:12;;;;;;;;;;;;;;;;;;5052632;28;20003;-83
2022/04/27 03:28:37;;;;;;;;;;;;;;;;;;5052330;28;19927;-83
2022/04/27 03:31:02;;;;;;;;;;;;;;;;;;5052448;28;19966;-83
2022/04/27 03:33:28;;;;;;;;;;;;;;;;;;5052301;28;19909;-83
2022/04/27 03:35:53;;;;;;;;;;;;;;;;;;5052603;28;19954;-83
2022/04/27 03:38:18;;;;;;;;;;;;;;;;;;5051033;28;19915;-83
2022/04/27 03:40:43;;;;;;;;;;;;;;;;;;5052532;28;20356;-83
2022/04/27 03:43:09;;;;;;;;;;;;;;;;;;5052760;28;19955;-83
2022/04/27 03:45:34;;;;;;;;;;;;;;;;;;5052099;28;19924;-83
2022/04/27 03:47:59;;;;;;;;;;;;;;;;;;5051748;28;19917;-83
2022/04/27 03:50:24;;;;;;;;;;;;;;;;;;5052462;28;19913;-83
2022/04/27 03:52:49;;;;;;;;;;;;;;;;;;5052445;28;19905;-83
2022/04/27 03:55:14;;;;;;;;;;;;;;;;;;5052370;28;19915;-83
2022/04/27 03:57:40;;;;;;;;;;;;;;;;;;5051846;28;19915;-83
2022/04/27 04:00:05;;;;;;;;;;;;;;;;;;5053820;28;20279;-83
2022/04/27 04:02:30;;;;;;;;;;;;;;;;;;5052259;28;19918;-83
2022/04/27 04:04:55;;;;;;;;;;;;;;;;;;5052019;28;19916;-83
2022/04/27 04:07:20;;;;;;;;;;;;;;;;;;5051792;28;19920;-83
2022/04/27 04:09:45;;;;;;;;;;;;;;;;;;5052052;28;19959;-83
2022/04/27 04:12:11;;;;;;;;;;;;;;;;;;5052390;28;19916;-83
2022/04/27 04:14:36;;;;;;;;;;;;;;;;;;5053370;28;19962;-82
2022/04/27 04:17:01;;;;;;;;;;;;;;;;;;5051360;28;19908;-83
2022/04/27 04:19:26;;;;;;;;;;;;;;;;;;5052006;28;19909;-83
2022/04/27 04:21:52;;;;;;;;;;;;;;;;;;5052020;28;20352;-83
2022/04/27 04:24:17;;;;;;;;;;;;;;;;;;5053189;28;19955;-83
2022/04/27 04:29:26;;;;;;;;;;;;;;;;;;5053102;28;19920;-83
2022/04/27 04:31:51;;;;;;;;;;;;;;;;;;5051831;28;19917;-83
2022/04/27 04:34:16;;;;;;;;;;;;;;;;;;5052890;28;19916;-83
2022/04/27 04:36:42;;;;;;;;;;;;;;;;;;5051064;28;19912;-82
2022/04/27 04:39:07;;;;;;;;;;;;;;;;;;5051237;28;19915;-83
2022/04/27 04:41:32;;;;;;;;;;;;;;;;;;5051689;28;19931;-83
2022/04/27 04:43:57;;;;;;;;;;;;;;;;;;5051536;28;20383;-83
2022/04/27 04:46:22;;;;;;;;;;;;;;;;;;5050547;28;19919;-83
2022/04/27 04:48:47;;;;;;;;;;;;;;;;;;5050625;28;19927;-83
2022/04/27 04:51:12;;;;;;;;;;;;;;;;;;5051862;28;20384;-83
2022/04/27 04:53:37;;;;;;;;;;;;;;;;;;5051258;28;19912;-83
2022/04/27 04:56:02;;;;;;;;;;;;;;;;;;5051492;28;19913;-83
2022/04/27 04:58:27;;;;;;;;;;;;;;;;;;5050893;28;19909;-83
2022/04/27 05:00:53;;;;;;;;;;;;;;;;;;5051136;28;20332;-83
2022/04/27 05:03:18;;;;;;;;;;;;;;;;;;5051227;28;19995;-83
2022/04/27 05:05:44;;;;;;;;;;;;;;;;;;5051310;28;19924;-83
2022/04/27 05:08:10;;;;;;;;;;;;;;;;;;5051137;28;19909;-83
2022/04/27 05:10:35;;;;;;;;;;;;;;;;;;5050758;28;19911;-83
2022/04/27 05:13:00;;;;;;;;;;;;;;;;;;5050831;28;19915;-83
2022/04/27 05:15:25;;;;;;;;;;;;;;;;;;5050873;28;19923;-82
2022/04/27 05:17:50;;;;;;;;;;;;;;;;;;5051544;28;19917;-83
2022/04/27 05:20:15;;;;;;;;;;;;;;;;;;5051049;28;19915;-83
2022/04/27 05:22:40;;;;;;;;;;;;;;;;;;5051004;28;20261;-83
2022/04/27 05:25:05;;;;;;;;;;;;;;;;;;5052189;28;20328;-83
2022/04/27 05:27:30;;;;;;;;;;;;;;;;;;5050185;28;19936;-83
2022/04/27 05:32:40;;;;;;;;;;;;;;;;;;5052117;28;19915;-83
2022/04/27 05:35:05;;;;;;;;;;;;;;;;;;5051929;28;19918;-83
2022/04/27 05:37:30;;;;;;;;;;;;;;;;;;5050594;28;20368;-82
2022/04/27 05:39:55;;;;;;;;;;;;;;;;;;5052091;28;19909;-82
2022/04/27 05:42:20;;;;;;;;;;;;;;;;;;5050464;28;19909;-82
2022/04/27 05:44:45;;;;;;;;;;;;;;;;;;5050713;28;19961;-82
2022/04/27 05:47:11;;;;;;;;;;;;;;;;;;5050197;28;19970;-82
2022/04/27 05:49:36;;;;;;;;;;;;;;;;;;5050559;28;20387;-82
2022/04/27 05:52:01;;;;;;;;;;;;;;;;;;5050727;28;19920;-82
2022/04/27 05:54:26;;;;;;;;;;;;;;;;;;5050442;28;19916;-82
2022/04/27 05:56:52;;;;;;;;;;;;;;;;;;5051144;28;19920;-82
2022/04/27 05:59:17;;;;;;;;;;;;;;;;;;5050574;28;19948;-82
2022/04/27 06:01:42;;;;;;;;;;;;;;;;;;5054194;28;19959;-82
2022/04/27 06:04:08;;;;;;;;;;;;;;;;;;5054561;28;19951;-82
2022/04/27 06:06:33;;;;;;;;;;;;;;;;;;5053869;28;19921;-82
2022/04/27 06:08:58;;;;;;;;;;;;;;;;;;5054535;28;19932;-82
2022/04/27 06:11:23;;;;;;;;;;;;;;;;;;5070897;28;20310;-82
2022/04/27 06:13:48;;;;;;;;;;;;;;;;;;5073153;28;20411;-82
2022/04/27 06:16:13;;;;;;;;;;;;;;;;;;5072453;28;19920;-82
2022/04/27 06:18:40;;;;;;;;;;;;;;;;;;5071534;28;19919;-82
2022/04/27 06:21:05;;;;;;;;;;;;;;;;;;5073593;28;19966;-82
2022/04/27 06:23:31;;;;;;;;;;;;;;;;;;5072888;28;19916;-82
2022/04/27 06:25:57;;;;;;;;;;;;;;;;;;5074797;28;20372;-82
2022/04/27 06:28:22;;;;;;;;;;;;;;;;;;5069474;28;20295;-82
2022/04/27 06:30:47;;;;;;;;;;;;;;;;;;5067843;28;19933;-83
2022/04/27 06:33:12;;;;;;;;;;;;;;;;;;5076429;28;19915;-83
2022/04/27 06:35:37;;;;;;;;;;;;;;;;;;5074612;28;19950;-82
2022/04/27 06:38:02;;;;;;;;;;;;;;;;;;5069654;28;20076;-83
2022/04/27 06:40:28;;;;;;;;;;;;;;;;;;5070891;28;20555;-82
2022/04/27 06:42:56;;;;;;;;;;;;;;;;;;5074027;28;19919;-82
2022/04/27 06:45:21;;;;;;;;;;;;;;;;;;5074714;28;19965;-82
2022/04/27 06:47:46;;;;;;;;;;;;;;;;;;5074586;28;19920;-82
2022/04/27 06:50:12;;;;;;;;;;;;;;;;;;5073932;28;19915;-82
2022/04/27 06:52:37;;;;;;;;;;;;;;;;;;5073503;28;20333;-82
2022/04/27 06:55:02;;;;;;;;;;;;;;;;;;5074697;28;19915;-82
2022/04/27 06:57:27;;;;;;;;;;;;;;;;;;5074004;28;19916;-82
2022/04/27 06:59:52;;;;;;;;;;;;;;;;;;5074505;28;19908;-82
2022/04/27 07:02:17;;;;;;;;;;;;;;;;;;5073435;28;20383;-82
2022/04/27 07:04:51;;;;;;;;;;;;;;;;;;5073390;28;19908;-82
2022/04/27 07:07:16;;;;;;;;;;;;;;;;;;5072917;28;20023;-82
2022/04/27 07:09:41;;;;;;;;;;;;;;;;;;5074465;28;20023;-82
2022/04/27 07:12:06;;;;;;;;;;;;;;;;;;5073188;28;19923;-82
2022/04/27 07:14:31;;;;;;;;;;;;;;;;;;5073224;28;19917;-82
2022/04/27 07:16:56;;;;;;;;;;;;;;;;;;5072607;28;20364;-82
2022/04/27 07:19:21;;;;;;;;;;;;;;;;;;5072842;28;19908;-82
2022/04/27 07:21:47;;;;;;;;;;;;;;;;;;5074127;28;19912;-82
2022/04/27 07:24:12;;;;;;;;;;;;;;;;;;5074198;28;19991;-82
2022/04/27 07:26:37;;;;;;;;;;;;;;;;;;5072397;28;20427;-82
2022/04/27 07:29:02;;;;;;;;;;;;;;;;;;5074218;28;19915;-82
2022/04/27 07:31:27;;;;;;;;;;;;;;;;;;5073923;28;19908;-82
2022/04/27 07:33:52;;;;;;;;;;;;;;;;;;5072861;28;20356;-82
2022/04/27 07:36:17;;;;;;;;;;;;;;;;;;5072527;28;19915;-82
2022/04/27 07:38:42;;;;;;;;;;;;;;;;;;5074255;28;19919;-82
2022/04/27 07:41:07;;;;;;;;;;;;;;;;;;5072718;28;19915;-82
2022/04/27 07:43:32;;;;;;;;;;;;;;;;;;5072628;28;19981;-82
2022/04/27 07:45:58;;;;;;;;;;;;;;;;;;5071817;28;19973;-82
2022/04/27 07:48:23;;;;;;;;;;;;;;;;;;5072523;28;20356;-82
2022/04/27 07:50:48;;;;;;;;;;;;;;;;;;5072270;28;19909;-82
2022/04/27 07:53:13;;;;;;;;;;;;;;;;;;5073362;28;19916;-82
2022/04/27 07:55:38;;;;;;;;;;;;;;;;;;5071993;28;19931;-82
2022/04/27 07:58:03;;;;;;;;;;;;;;;;;;5072575;28;20238;-82
2022/04/27 08:00:29;;;;;;;;;;;;;;;;;;5072292;28;19916;-82
2022/04/27 08:02:54;;;;;;;;;;;;;;;;;;5072445;28;19909;-82
2022/04/27 08:05:19;;;;;;;;;;;;;;;;;;5072761;28;19908;-83
2022/04/27 08:07:45;;;;;;;;;;;;;;;;;;5071738;28;19919;-82
2022/04/27 08:10:11;;;;;;;;;;;;;;;;;;5071952;28;19913;-82
2022/04/27 08:12:36;;;;;;;;;;;;;;;;;;5072191;28;19908;-83
2022/04/27 08:15:01;;;;;;;;;;;;;;;;;;5072013;28;20006;-83
2022/04/27 08:17:26;;;;;;;;;;;;;;;;;;5071463;28;19952;-83
2022/04/27 08:21:13;;;;;;;;;;;;;;;;;;5072257;28;19958;-83
2022/04/27 08:22:36;;;;;;;;;;;;;;;;;;5073286;28;19916;-82
2022/04/27 08:25:01;;;;;;;;;;;;;;;;;;5073584;28;19915;-82
2022/04/27 08:27:26;;;;;;;;;;;;;;;;;;5069904;28;19923;-82
2022/04/27 08:29:51;;;;;;;;;;;;;;;;;;5072737;28;19966;-82
2022/04/27 08:32:16;;;;;;;;;;;;;;;;;;5071900;28;19939;-83
2022/04/27 08:34:42;;;;;;;;;;;;;;;;;;5072737;28;20276;-82
2022/04/27 08:37:07;;;;;;;;;;;;;;;;;;5072824;28;19912;-83
2022/04/27 08:39:32;;;;;;;;;;;;;;;;;;5072304;28;19962;-83
2022/04/27 08:41:57;;;;;;;;;;;;;;;;;;5071872;28;19919;-82
2022/04/27 08:44:22;;;;;;;;;;;;;;;;;;5073715;28;19916;-82
2022/04/27 08:46:47;;;;;;;;;;;;;;;;;;5071621;28;19924;-82
2022/04/27 08:49:13;;;;;;;;;;;;;;;;;;5071621;28;19912;-82
2022/04/27 08:51:39;;;;;;;;;;;;;;;;;;5072472;28;19912;-83
2022/04/27 08:54:04;;;;;;;;;;;;;;;;;;5067892;28;19913;-82
2022/04/27 08:56:30;;;;;;;;;;;;;;;;;;5057368;28;19919;-82
2022/04/27 08:58:55;;;;;;;;;;;;;;;;;;5068947;28;19913;-82
2022/04/27 09:01:20;;;;;;;;;;;;;;;;;;5070035;28;19991;-82
2022/04/27 09:03:46;;;;;;;;;;;;;;;;;;5070922;28;20026;-82
2022/04/27 09:06:12;;;;;;;;;;;;;;;;;;5063911;28;20364;-82
2022/04/27 09:08:37;;;;;;;;;;;;;;;;;;5064635;28;19999;-82
2022/04/27 09:11:02;;;;;;;;;;;;;;;;;;5069755;28;19960;-82
2022/04/27 09:13:27;;;;;;;;;;;;;;;;;;5070842;28;19931;-82
2022/04/27 09:15:52;;;;;;;;;;;;;;;;;;5066446;28;19913;-82
2022/04/27 09:21:01;;;;;;;;;;;;;;;;;;5069730;28;19918;-81
2022/04/27 09:23:26;;;;;;;;;;;;;;;;;;5058335;28;20011;-82
2022/04/27 09:25:51;;;;;;;;;;;;;;;;;;5059838;28;20335;-82
2022/04/27 09:28:16;;;;;;;;;;;;;;;;;;5067268;28;19920;-82
2022/04/27 09:30:42;;;;;;;;;;;;;;;;;;5067405;28;19912;-82
2022/04/27 09:33:07;;;;;;;;;;;;;;;;;;5062263;28;19964;-82
2022/04/27 09:35:32;;;;;;;;;;;;;;;;;;5068708;28;19986;-82
2022/04/27 09:37:57;;;;;;;;;;;;;;;;;;5071061;28;19955;-82
2022/04/27 09:40:22;;;;;;;;;;;;;;;;;;5071861;28;19930;-82
2022/04/27 09:42:47;;;;;;;;;;;;;;;;;;5070424;28;20009;-82
2022/04/27 09:45:12;;;;;;;;;;;;;;;;;;5067622;28;19986;-81
2022/04/27 09:47:38;;;;;;;;;;;;;;;;;;5014615;28;1118475;-82
2022/04/27 09:50:03;;;;;;;;;;;;;;;;;;5057976;28;19959;-82
2022/04/27 10:12:57;;;;;;;9.95;4.68;;;;;;;;;;5120455;27;20393;-80
2022/04/27 10:15:23;;;;;;;12.02;4.60;;;;;;;;;;5088847;28;20032;-80
2022/04/27 10:17:48;;;;;;;14.35;4.78;;;;;;;;;;5074425;28;20467;-80
2022/04/27 10:20:26;;;;;;;12.88;5.13;;;;;;;;;;5069895;28;20017;-81
2022/04/27 10:22:52;;;;;;;9.18;4.75;;;;;;;;;;5083385;28;20024;-80
2022/04/27 10:25:18;;;;;;;11.43;5.03;;;;;;;;;;5090228;28;20125;-81
2022/04/27 10:27:44;;;;;;;11.25;5.10;;;;;;;;;;5068165;28;20032;-80
2022/04/27 10:30:13;;;;;;;9.60;4.78;;;;;;;;;;5068421;28;20017;-80
2022/04/27 10:32:40;;;;;;;9.05;5.80;;;;;;;;;;5068251;28;20459;-89
2022/04/27 10:35:11;;;;;;;9.55;5.53;;;;;;;;;;5069561;28;20028;-89
2022/04/27 10:37:54;;;;;;;11.40;4.65;;;;;;;;;;5069443;28;20090;-90
2022/04/27 10:40:35;;;;;;;11.63;4.97;;;;;;;;;;5069222;28;20028;-89
2022/04/27 10:43:01;;;;;;;10.82;4.90;;;;;;;;;;5069256;28;20119;-89
2022/04/27 10:45:27;;;;;;;11.60;5.40;;;;;;;;;;5072712;28;20060;-89
2022/04/27 10:47:52;;;;;;;9.38;5.10;;;;;;;;;;5080427;28;20392;-90
2022/04/27 10:50:18;;;;;;;8.20;4.85;;;;;;;;;;5084436;28;20020;-90
2022/04/27 10:52:51;;;;;;;8.38;4.60;;;;;;;;;;5079399;28;20108;-89
2022/04/27 10:55:34;;;;;;;9.32;5.15;;;;;;;;;;5081502;28;20456;-90
2022/04/27 10:58:12;;;;;;;12.25;5.15;;;;;;;;;;5081253;28;20024;-89
2022/04/27 11:00:56;;;;;;;9.88;5.35;;;;;;;;;;5088351;28;20028;-89
2022/04/27 11:03:22;;;;;;;9.93;5.40;;;;;;;;;;5088939;28;20364;-89
2022/04/27 11:05:47;;;;;;;9.15;5.15;;;;;;;;;;5089236;28;20016;-89
2022/04/27 11:08:21;;;;;;;21.30;5.80;;;;;;;;;;5072423;28;20043;-90
2022/04/27 11:10:47;;;;;;;14.25;6.10;;;;;;;;;;5069704;28;20387;-89
2022/04/27 11:13:12;;;;;;;12.02;6.25;;;;;;;;;;5059246;28;20025;-90
2022/04/27 11:15:37;;;;;;;11.57;4.78;;;;;;;;;;5055432;28;20016;-90
2022/04/27 11:18:03;;;;;;;11.20;5.22;;;;;;;;;;5072191;28;20016;-90
2022/04/27 11:20:37;;;;;;;9.25;5.85;;;;;;;;;;5075243;28;20105;-90
2022/04/27 11:23:06;;;;;;;11.25;5.90;;;;;;;;;;5076483;28;20099;-89
2022/04/27 11:25:33;;;;;;;10.05;5.05;;;;;;;;;;5060882;28;20028;-89
2022/04/27 11:27:59;;;;;;;9.60;5.40;;;;;;;;;;5055663;28;20025;-90
2022/04/27 11:30:24;;;;;;;12.63;6.05;;;;;;;;;;5063613;28;20537;-89
2022/04/27 11:32:50;;;;;;;11.63;6.03;;;;;;;;;;5064508;28;20025;-89
2022/04/27 11:35:16;;;;;;;12.70;5.88;;;;;;;;;;5075375;28;20036;-90
2022/04/27 11:37:41;;;;;;;12.00;5.70;;;;;;;;;;5075957;28;20467;-90
2022/04/27 11:40:14;;;;;;;14.35;7.47;;;;;;;;;;5071984;28;20024;-90
2022/04/27 11:42:39;;;;;;;;;;;;;;;;;;5075007;28;20074;-90
2022/04/27 11:45:04;;;;;;;15.73;6.22;;;;;;;;;;5055894;28;19909;-89
2022/04/27 11:47:30;;;;;;;10.60;6.88;;;;;;;;;;5055751;28;20717;-90
2022/04/27 11:49:56;;;;;;;10.02;6.30;;;;;;;;;;5054501;28;20029;-90
2022/04/27 11:52:22;;;;;;;13.13;5.78;;;;;;;;;;5071268;28;20035;-89
2022/04/27 11:54:48;;;;;;;11.75;6.68;;;;;;;;;;5066157;28;20023;-89
2022/04/27 11:57:19;;;;;;;13.43;6.10;;;;;;;;;;5066708;28;20035;-90
2022/04/27 11:59:45;;;;;;;10.43;6.03;;;;;;;;;;5061153;28;20025;-90
2022/04/27 12:02:10;;;;;;;11.23;5.60;;;;;;;;;;5072711;28;20024;-89
2022/04/27 12:04:36;;;;;;;18.48;5.70;;;;;;;;;;5074304;28;20445;-89
2022/04/27 12:07:01;;;;;;;12.27;7.45;;;;;;;;;;5074332;28;20391;-90
2022/04/27 12:09:26;;;;;;;10.15;7.10;;;;;;;;;;5075394;28;20071;-90
2022/04/27 12:11:53;;;;;;;12.57;6.72;;;;;;;;;;5058204;28;20087;-89
2022/04/27 12:14:19;;;;;;;10.50;6.18;;;;;;;;;;5070962;28;20029;-90
2022/04/27 12:16:44;;;;;;;12.25;6.75;;;;;;;;;;5058374;28;20017;-90
2022/04/27 12:19:10;;;;;;;9.07;6.45;;;;;;;;;;5055341;28;20104;-90
2022/04/27 12:21:35;;;;;;;15.98;8.18;;;;;;;;;;5057700;28;20475;-89
2022/04/27 12:24:13;;;;;;;11.82;6.97;;;;;;;;;;5060337;28;20016;-89
2022/04/27 12:26:40;;;;;;;11.38;6.47;;;;;;;;;;5059619;28;20021;-89
2022/04/27 12:29:08;;;;;;;10.80;6.50;;;;;;;;;;5062191;28;20032;-90
2022/04/27 12:31:34;;;;;;;12.02;7.00;;;;;;;;;;5064864;28;20028;-89
2022/04/27 12:34:02;;;;;;;10.85;5.90;;;;;;;;;;5058411;28;20491;-88
2022/04/27 12:39:23;;;;;;;11.82;6.50;;;;;;;;;;5062307;28;20061;-89
2022/04/27 12:41:49;;;;;;;14.13;6.60;;;;;;;;;;5073784;28;20023;-89
2022/04/27 12:44:15;;;;;;;13.43;6.30;;;;;;;;;;5054421;28;20005;-89
2022/04/27 12:46:58;;;;;;;14.90;6.63;;;;;;;;;;5052228;28;20017;-89
2022/04/27 12:49:26;;;;;;;14.57;7.90;;;;;;;;;;5061318;28;20028;-89
2022/04/27 12:51:51;;;;;;;16.40;7.40;;;;;;;;;;5065131;28;20054;-89
2022/04/27 12:54:17;;;;;;;14.90;9.38;;;;;;;;;;5055537;28;20017;-88
2022/04/27 12:56:42;;;;;;;21.08;7.97;;;;;;;;;;5042599;28;20427;-89
2022/04/27 12:59:12;;;;;;;12.55;7.88;;;;;;;;;;5050558;28;20108;-89
2022/04/27 13:01:37;;;;;;;19.15;8.60;;;;;;;;;;5052124;28;20013;-89
2022/04/27 13:04:03;;;;;;;20.77;8.07;;;;;;;;;;5049418;28;20090;-90
2022/04/27 13:06:31;;;;;;;10.32;6.20;;;;;;;;;;5031345;28;20018;-89
2022/04/27 13:11:56;;;;;;;13.18;6.47;;;;;;;;;;5064463;28;20040;-90
2022/04/27 13:14:21;;;;;;;10.48;6.68;;;;;;;;;;5051406;28;20078;-89
2022/04/27 13:16:46;;;;;;;12.63;7.43;;;;;;;;;;5056044;28;20115;-89
2022/04/27 13:19:11;;;;;;;17.65;8.40;;;;;;;;;;5053819;28;20420;-89
2022/04/27 13:21:37;;;;;;;13.73;7.35;;;;;;;;;;5056082;28;20036;-90
2022/04/27 13:24:02;;;;;;;15.32;8.82;;;;;;;;;;5058244;28;20021;-89
2022/04/27 13:26:27;;;;;;;15.57;8.15;;;;;;;;;;5053498;28;20410;-90
2022/04/27 13:28:52;;;;;;;14.30;7.53;;;;;;;;;;5085683;28;20024;-89
2022/04/27 13:31:17;;;;;;;15.07;8.55;;;;;;;;;;5054292;28;20463;-89
2022/04/27 13:33:42;;;;;;;22.95;8.82;;;;;;;;;;5063099;28;20075;-90
2022/04/27 13:36:08;;;;;;;15.70;9.27;;;;;;;;;;5051757;28;20025;-89
2022/04/27 13:38:33;;;;;;;15.10;6.70;;;;;;;;;;5060916;28;20383;-89
2022/04/27 13:40:59;;;;;;;15.98;7.13;;;;;;;;;;5072139;28;20044;-89
2022/04/27 13:43:25;;;;;;;15.70;7.10;;;;;;;;;;5071726;28;20028;-90
2022/04/27 13:45:50;;;;;;;17.58;7.22;;;;;;;;;;5060781;28;20017;-90
2022/04/27 13:48:15;;;;;;;10.95;7.00;;;;;;;;;;5053380;28;20021;-90
2022/04/27 13:50:40;;;;;;;12.15;6.93;;;;;;;;;;5052483;28;20036;-90
2022/04/27 13:53:06;;;;;;;13.38;8.07;;;;;;;;;;5052136;28;20079;-90
2022/04/27 13:55:32;;;;;;;13.25;8.00;;;;;;;;;;5049017;28;20017;-90
2022/04/27 13:57:58;;;;;;;12.55;8.13;;;;;;;;;;5055760;28;20048;-91
2022/04/27 14:00:23;;;;;;;16.67;8.68;;;;;;;;;;5051391;28;20021;-90
2022/04/27 14:02:48;;;;;;;14.60;7.80;;;;;;;;;;5052036;28;20125;-90
2022/04/27 14:05:14;;;;;;;16.02;6.68;;;;;;;;;;5054924;28;20090;-90
2022/04/27 14:07:42;;;;;;;16.70;7.30;;;;;;;;;;5060741;28;20021;-90
2022/04/27 14:10:07;;;;;;;14.77;8.55;;;;;;;;;;5052032;28;20017;-90
2022/04/27 14:15:17;;;;;;;12.05;6.43;;;;;;;;;;5033231;28;20112;-89
2022/04/27 14:20:26;;;;;;;17.05;7.60;;;;;;;;;;5073268;28;20070;-90
2022/04/27 14:22:51;;;;;;;13.75;6.97;;;;;;;;;;5073022;28;20009;-89
2022/04/27 14:25:16;;;;;;;12.80;7.25;;;;;;;;;;5071831;28;20082;-89
2022/04/27 14:27:41;;;;;;;17.30;7.80;;;;;;;;;;5060418;28;20533;-90
2022/04/27 14:30:07;;;;;;;12.73;7.45;;;;;;;;;;5053273;28;20052;-90
2022/04/27 14:32:33;;;;;;;13.23;7.18;;;;;;;;;;5051557;28;20392;-90
2022/04/27 14:34:58;;;;;;;17.35;8.45;;;;;;;;;;5051990;28;20454;-90
2022/04/27 14:37:24;;;;;;;12.07;7.60;;;;;;;;;;5059311;28;20119;-90
2022/04/27 14:39:49;;;;;;;13.38;6.63;;;;;;;;;;5063271;28;20060;-90
2022/04/27 14:42:14;;;;;;;18.48;7.93;;;;;;;;;;5071543;28;20418;-90
2022/04/27 14:44:39;;;;;;;14.70;7.75;;;;;;;;;;5052624;28;20033;-90
2022/04/27 14:47:05;;;;;;;19.70;7.80;;;;;;;;;;5067833;28;20375;-89
2022/04/27 14:49:30;;;;;;;21.00;8.25;;;;;;;;;;5063664;28;20498;-89
2022/04/27 14:51:55;;;;;;;12.35;7.95;;;;;;;;;;5076508;28;20184;-90
2022/04/27 14:54:20;;;;;;;16.00;7.85;;;;;;;;;;5067008;28;20048;-90
2022/04/27 14:56:45;;;;;;;16.95;6.97;;;;;;;;;;5056941;28;20031;-90
2022/04/27 14:59:12;;;;;;;13.18;7.40;;;;;;;;;;5051078;28;20088;-90
2022/04/27 15:01:37;;;;;;;20.30;7.78;;;;;;;;;;5056158;28;20028;-81
2022/04/27 15:04:03;;;;;;;13.35;7.32;;;;;;;;;;5054252;28;20612;-81
2022/04/27 15:06:28;;;;;;;12.18;7.40;;;;;;;;;;5059455;28;20028;-81
2022/04/27 15:08:54;;;;;;;15.07;8.75;;;;;;;;;;5040977;28;20005;-80
2022/04/27 15:11:19;;;;;;;17.08;8.00;;;;;;;;;;5055347;28;20025;-80
2022/04/27 15:13:47;;;;;;;13.73;6.80;;;;;;;;;;5045949;28;20025;-81
2022/04/27 15:16:12;;;;;;;17.02;6.97;;;;;;;;;;5058847;28;20380;-80
2022/04/27 15:18:38;;;;;;;14.23;6.43;;;;;;;;;;5042109;28;20029;-80
2022/04/27 15:23:47;;;;;;;12.98;6.72;;;;;;;;;;5055218;28;20040;-80
2022/04/27 15:26:12;;;;;;;14.32;7.80;;;;;;;;;;5055470;28;20380;-80
2022/04/27 15:28:37;;;;;;;10.40;6.65;;;;;;;;;;5054970;28;20464;-81
2022/04/27 15:31:02;;;;;;;11.73;6.80;;;;;;;;;;5063045;28;20028;-81
2022/04/27 15:33:29;;;;;;;11.82;7.20;;;;;;;;;;5075395;28;20032;-81
2022/04/27 15:35:54;;;;;;;12.18;6.07;;;;;;;;;;5072413;28;20130;-81
2022/04/27 15:38:20;;;;;;;16.33;7.05;;;;;;;;;;5074278;28;20040;-80
2022/04/27 15:40:45;;;;;;;19.83;7.72;;;;;;;;;;5073308;28;20463;-81
2022/04/27 15:43:10;;;;;;;11.90;7.10;;;;;;;;;;5075070;28;20048;-81
2022/04/27 15:45:36;;;;;;;13.90;7.43;;;;;;;;;;5071493;28;20111;-81
2022/04/27 15:48:01;;;;;;;11.80;7.03;;;;;;;;;;5073542;28;20086;-81
2022/04/27 15:50:35;;;;;;;16.50;7.00;;;;;;;;;;5072048;28;20033;-81
2022/04/27 15:53:01;;;;;;;18.13;7.43;;;;;;;;;;5075229;28;20017;-81
2022/04/27 15:55:26;;;;;;;14.15;5.97;;;;;;;;;;5058753;28;20025;-81
2022/04/27 15:57:52;;;;;;;19.40;6.43;;;;;;;;;;5053344;28;20078;-81
2022/04/27 16:00:20;;;;;;;18.42;7.53;;;;;;;;;;5055484;28;20483;-81
2022/04/27 16:02:45;;;;;;;17.83;7.43;;;;;;;;;;5053815;28;20071;-81
2022/04/27 16:05:10;;;;;;;17.15;6.28;;;;;;;;;;5053796;28;20021;-81
2022/04/27 16:07:37;;;;;;;14.18;6.15;;;;;;;;;;5054785;28;20025;-81
2022/04/27 16:10:03;;;;;;;15.43;6.60;;;;;;;;;;5054674;28;20862;-81
2022/04/27 16:12:28;;;;;;;16.17;5.93;;;;;;;;;;5057384;28;20028;-81
2022/04/27 16:14:53;;;;;;;11.07;6.82;;;;;;;;;;5069928;28;20028;-80
2022/04/27 16:17:19;;;;;;;10.38;5.50;;;;;;;;;;5071501;28;20028;-81
2022/04/27 16:19:44;;;;;;;10.65;7.20;;;;;;;;;;5074025;28;20553;-81
2022/04/27 16:24:53;;;;;;;13.82;6.15;;;;;;;;;;5054902;28;20372;-81
2022/04/27 16:27:19;;;;;;;14.77;6.22;;;;;;;;;;5054569;28;20017;-81
2022/04/27 16:29:44;;;;;;;9.45;5.75;;;;;;;;;;5054469;28;20025;-81
2022/04/27 16:32:09;;;;;;;8.73;6.13;;;;;;;;;;5072839;28;20048;-81